Time;durP1;ratioP1;P1;durP2;ratioP2;P2;SDS_P1;SDS_P2;PMS_P1;PMS_P2;Temp;Humidity;BMP_temperature;BMP_pressure;BME280_temperature;BME280_humidity;BME280_pressure;Samples;Min_cycle;Max_cycle;Signal;HPM_P1;HPM_P2
2022/04/28 00:01:55;;;;;;;23.85;19.17;;;;;;;;;;4922846;29;20090;-76
2022/04/28 00:04:21;;;;;;;29.30;21.30;;;;;;;;;;4924321;29;20028;-78
2022/04/28 00:06:47;;;;;;;25.90;21.27;;;;;;;;;;4921344;29;20039;-77
2022/04/28 00:09:14;;;;;;;30.60;21.17;;;;;;;;;;4922679;29;20032;-77
2022/04/28 00:11:42;;;;;;;23.88;19.30;;;;;;;;;;4923314;29;20036;-77
2022/04/28 00:14:08;;;;;;;25.67;20.35;;;;;;;;;;4920925;29;20047;-77
2022/04/28 00:16:35;;;;;;;24.40;19.92;;;;;;;;;;4927132;29;20043;-76
2022/04/28 00:19:13;;;;;;;25.70;19.63;;;;;;;;;;4928438;29;20028;-77
2022/04/28 00:21:42;;;;;;;23.73;18.25;;;;;;;;;;4913844;29;20051;-76
2022/04/28 00:24:08;;;;;;;23.63;19.23;;;;;;;;;;4923837;29;20439;-77
2022/04/28 00:26:36;;;;;;;22.42;18.90;;;;;;;;;;4925516;29;20044;-77
2022/04/28 00:29:02;;;;;;;22.95;18.75;;;;;;;;;;4923679;29;20032;-77
2022/04/28 00:31:28;;;;;;;22.58;19.17;;;;;;;;;;4925213;29;20441;-76
2022/04/28 00:33:59;;;;;;;22.27;18.48;;;;;;;;;;4922535;29;20032;-76
2022/04/28 00:36:25;;;;;;;21.33;18.75;;;;;;;;;;4924771;29;20024;-77
2022/04/28 00:38:53;;;;;;;23.75;19.38;;;;;;;;;;4923713;29;20083;-76
2022/04/28 00:41:21;;;;;;;25.55;19.15;;;;;;;;;;4907855;29;20458;-77
2022/04/28 00:43:52;;;;;;;24.45;18.70;;;;;;;;;;4924649;29;20174;-76
2022/04/28 00:46:18;;;;;;;22.23;19.48;;;;;;;;;;4924055;29;20012;-77
2022/04/28 00:51:31;;;;;;;24.63;19.45;;;;;;;;;;4926368;29;20066;-77
2022/04/28 00:53:58;;;;;;;24.77;18.98;;;;;;;;;;4924701;29;20020;-77
2022/04/28 00:56:25;;;;;;;23.75;19.15;;;;;;;;;;4920961;29;20028;-78
2022/04/28 00:58:51;;;;;;;23.17;18.75;;;;;;;;;;4920893;29;20032;-77
2022/04/28 01:01:17;;;;;;;23.63;19.30;;;;;;;;;;4926307;29;20032;-77
2022/04/28 01:03:46;;;;;;;23.58;18.70;;;;;;;;;;4922792;29;20036;-76
2022/04/28 01:06:12;;;;;;;24.17;19.10;;;;;;;;;;4925588;29;20479;-77
2022/04/28 01:08:39;;;;;;;20.85;17.83;;;;;;;;;;4907884;29;20032;-77
2022/04/28 01:11:06;;;;;;;21.88;17.75;;;;;;;;;;4923359;29;20075;-76
2022/04/28 01:13:32;;;;;;;21.60;17.25;;;;;;;;;;4921490;29;20063;-77
2022/04/28 01:15:58;;;;;;;23.50;19.08;;;;;;;;;;4924592;29;20028;-76
2022/04/28 01:18:24;;;;;;;22.27;17.92;;;;;;;;;;4923341;29;20028;-77
2022/04/28 01:20:51;;;;;;;20.65;17.88;;;;;;;;;;4924980;29;20028;-77
2022/04/28 01:23:18;;;;;;;21.70;17.88;;;;;;;;;;4922637;29;20042;-77
2022/04/28 01:25:44;;;;;;;24.17;18.25;;;;;;;;;;4923256;29;20088;-77
2022/04/28 01:28:11;;;;;;;22.63;18.40;;;;;;;;;;4924226;29;20039;-76
2022/04/28 01:30:37;;;;;;;22.48;18.23;;;;;;;;;;4925077;29;20016;-76
2022/04/28 01:33:04;;;;;;;21.35;18.40;;;;;;;;;;4922012;29;20127;-76
2022/04/28 01:35:30;;;;;;;22.63;19.45;;;;;;;;;;4922449;29;20032;-76
2022/04/28 01:37:57;;;;;;;23.65;18.83;;;;;;;;;;4925624;29;20032;-77
2022/04/28 01:40:24;;;;;;;22.27;18.42;;;;;;;;;;4922665;29;20387;-76
2022/04/28 01:42:53;;;;;;;21.25;17.95;;;;;;;;;;4923276;29;20122;-77
2022/04/28 01:45:19;;;;;;;21.08;17.70;;;;;;;;;;4905666;29;20395;-76
2022/04/28 01:47:45;;;;;;;20.52;17.80;;;;;;;;;;4923958;29;20024;-77
2022/04/28 01:50:11;;;;;;;25.00;18.98;;;;;;;;;;4918434;29;20518;-77
2022/04/28 01:55:23;;;;;;;24.33;19.83;;;;;;;;;;4921648;29;20043;-77
2022/04/28 01:57:49;;;;;;;21.55;18.90;;;;;;;;;;4921368;29;20032;-77
2022/04/28 02:00:16;;;;;;;22.10;19.23;;;;;;;;;;4922791;29;20024;-76
2022/04/28 02:02:42;;;;;;;21.27;18.33;;;;;;;;;;4922212;29;20051;-77
2022/04/28 02:05:09;;;;;;;28.23;20.05;;;;;;;;;;4921953;29;20032;-77
2022/04/28 02:07:35;;;;;;;24.38;20.02;;;;;;;;;;4923025;29;20039;-76
2022/04/28 02:10:02;;;;;;;22.13;19.42;;;;;;;;;;4924684;29;20027;-76
2022/04/28 02:12:28;;;;;;;22.23;19.50;;;;;;;;;;4920543;29;20036;-77
2022/04/28 02:14:54;;;;;;;21.30;18.95;;;;;;;;;;4924200;29;20057;-77
2022/04/28 02:17:22;;;;;;;23.92;20.15;;;;;;;;;;4919811;29;20483;-77
2022/04/28 02:19:48;;;;;;;22.67;19.77;;;;;;;;;;4923898;29;20050;-78
2022/04/28 02:22:14;;;;;;;25.50;21.25;;;;;;;;;;4923487;29;20016;-76
2022/04/28 02:24:41;;;;;;;23.77;21.20;;;;;;;;;;4921335;29;20059;-76
2022/04/28 02:27:07;;;;;;;26.90;20.48;;;;;;;;;;4905237;29;20387;-76
2022/04/28 02:29:33;;;;;;;22.60;20.15;;;;;;;;;;4922482;29;20035;-76
2022/04/28 02:32:02;;;;;;;24.42;20.92;;;;;;;;;;4923257;29;20035;-77
2022/04/28 02:34:28;;;;;;;24.50;20.33;;;;;;;;;;4923248;29;20043;-77
2022/04/28 02:36:54;;;;;;;23.60;20.20;;;;;;;;;;4922380;29;20032;-76
2022/04/28 02:39:22;;;;;;;28.42;20.80;;;;;;;;;;4923571;29;20024;-76
2022/04/28 02:41:48;;;;;;;24.15;20.13;;;;;;;;;;4924724;29;20028;-77
2022/04/28 02:44:15;;;;;;;25.50;20.83;;;;;;;;;;4921480;29;20107;-76
2022/04/28 02:46:45;;;;;;;26.42;21.42;;;;;;;;;;4922395;29;20056;-77
2022/04/28 02:49:12;;;;;;;24.23;21.33;;;;;;;;;;4924600;29;20499;-77
2022/04/28 02:51:38;;;;;;;25.55;21.17;;;;;;;;;;4925512;29;20115;-76
2022/04/28 02:54:04;;;;;;;26.40;22.08;;;;;;;;;;4922775;29;20543;-76
2022/04/28 02:56:31;;;;;;;24.90;22.15;;;;;;;;;;4922117;29;20095;-76
2022/04/28 02:58:57;;;;;;;26.52;22.75;;;;;;;;;;4922442;29;20501;-76
2022/04/28 03:01:23;;;;;;;25.20;22.23;;;;;;;;;;4923676;29;20380;-76
2022/04/28 03:03:50;;;;;;;25.63;22.83;;;;;;;;;;4925516;29;20040;-77
2022/04/28 03:11:53;;;;;;;28.25;22.25;;;;;;;;;;4924889;29;20525;-76
2022/04/28 03:14:19;;;;;;;29.80;22.60;;;;;;;;;;4925072;29;20059;-76
2022/04/28 03:16:46;;;;;;;29.67;23.13;;;;;;;;;;4921180;29;20057;-77
2022/04/28 03:19:12;;;;;;;27.50;22.75;;;;;;;;;;4922665;29;20459;-76
2022/04/28 03:21:38;;;;;;;25.27;21.80;;;;;;;;;;4921056;29;20043;-77
2022/04/28 03:24:05;;;;;;;29.88;23.73;;;;;;;;;;4925688;29;20100;-76
2022/04/28 03:26:31;;;;;;;30.25;24.23;;;;;;;;;;4924064;29;20056;-76
2022/04/28 03:29:00;;;;;;;33.38;23.52;;;;;;;;;;4923383;29;20027;-76
2022/04/28 03:31:26;;;;;;;27.10;23.95;;;;;;;;;;4924893;29;20047;-76
2022/04/28 03:33:52;;;;;;;30.48;23.80;;;;;;;;;;4924793;29;20024;-76
2022/04/28 03:39:04;;;;;;;27.92;23.23;;;;;;;;;;4905494;29;20104;-76
2022/04/28 03:41:30;;;;;;;28.38;24.30;;;;;;;;;;4920114;29;20493;-76
2022/04/28 03:43:56;;;;;;;31.52;23.38;;;;;;;;;;4922382;29;20035;-77
2022/04/28 03:46:24;;;;;;;30.13;23.50;;;;;;;;;;4923769;29;20107;-76
2022/04/28 03:48:50;;;;;;;28.27;23.35;;;;;;;;;;4923227;29;20020;-76
2022/04/28 03:51:16;;;;;;;28.10;22.95;;;;;;;;;;4926657;29;20032;-76
2022/04/28 03:53:42;;;;;;;29.05;23.52;;;;;;;;;;4922379;29;20021;-76
2022/04/28 03:56:08;;;;;;;29.70;24.23;;;;;;;;;;4925692;29;20052;-76
2022/04/28 03:58:34;;;;;;;28.05;24.02;;;;;;;;;;4927999;29;20039;-76
2022/04/28 04:01:03;;;;;;;34.53;24.13;;;;;;;;;;4922771;29;20142;-76
2022/04/28 04:03:30;;;;;;;29.73;23.85;;;;;;;;;;4923078;29;20032;-76
2022/04/28 04:05:56;;;;;;;31.70;23.13;;;;;;;;;;4923466;29;20033;-76
2022/04/28 04:08:23;;;;;;;31.20;24.45;;;;;;;;;;4924244;29;20040;-76
2022/04/28 04:10:49;;;;;;;31.77;24.50;;;;;;;;;;4923667;29;20030;-76
2022/04/28 04:13:15;;;;;;;31.77;23.88;;;;;;;;;;4923644;29;20059;-76
2022/04/28 04:15:42;;;;;;;32.20;24.02;;;;;;;;;;4917789;29;20020;-76
2022/04/28 04:18:08;;;;;;;29.70;22.73;;;;;;;;;;4905180;29;20035;-76
2022/04/28 04:20:34;;;;;;;33.33;24.13;;;;;;;;;;4922756;29;20447;-76
2022/04/28 04:23:04;;;;;;;28.63;23.52;;;;;;;;;;4937070;29;20008;-76
2022/04/28 04:25:37;;;;;;;28.63;22.80;;;;;;;;;;4936893;29;20502;-76
2022/04/28 04:28:06;;;;;;;29.27;23.70;;;;;;;;;;4935207;29;20024;-76
2022/04/28 04:33:17;;;;;;;30.38;23.67;;;;;;;;;;4923890;29;20032;-76
2022/04/28 04:35:44;;;;;;;28.23;23.50;;;;;;;;;;4925786;29;20028;-76
2022/04/28 04:38:10;;;;;;;27.27;22.70;;;;;;;;;;4923993;29;20028;-76
2022/04/28 04:40:36;;;;;;;28.20;22.92;;;;;;;;;;4926649;29;20028;-76
2022/04/28 04:43:03;;;;;;;27.55;23.60;;;;;;;;;;4926987;29;20050;-76
2022/04/28 04:45:32;;;;;;;30.15;23.75;;;;;;;;;;4926596;29;20072;-76
2022/04/28 04:47:58;;;;;;;30.15;24.20;;;;;;;;;;4933234;29;20028;-80
2022/04/28 04:50:36;;;;;;;26.90;22.58;;;;;;;;;;4918145;29;20048;-78
2022/04/28 04:53:07;;;;;;;29.92;23.85;;;;;;;;;;4922386;29;20039;-77
2022/04/28 04:55:34;;;;;;;26.95;23.17;;;;;;;;;;5481787;23;20357;-79
2022/04/28 05:11:27;;;;;;;25.13;21.45;;;;;;;;;;5091005;23;20063;-76
2022/04/28 05:13:55;;;;;;;26.30;21.83;;;;;;;;;;4917741;29;20032;-76
2022/04/28 05:16:21;;;;;;;26.80;20.48;;;;;;;;;;4898066;29;20028;-75
2022/04/28 05:18:47;;;;;;;25.38;21.63;;;;;;;;;;4897764;29;20030;-76
2022/04/28 05:21:13;;;;;;;26.02;21.63;;;;;;;;;;4897087;29;20056;-76
2022/04/28 05:23:39;;;;;;;28.92;21.30;;;;;;;;;;4898616;29;20037;-76
2022/04/28 05:26:05;;;;;;;26.05;21.58;;;;;;;;;;4899745;29;20021;-77
2022/04/28 05:28:31;;;;;;;25.75;22.65;;;;;;;;;;4902330;29;20476;-76
2022/04/28 05:31:23;;;;;;;29.13;23.20;;;;;;;;;;4918190;29;20111;-80
2022/04/28 05:33:49;;;;;;;28.52;22.52;;;;;;;;;;4901745;29;20033;-76
2022/04/28 05:36:17;;;;;;;31.98;22.10;;;;;;;;;;4906085;29;20111;-79
2022/04/28 05:38:44;;;;;;;29.90;22.58;;;;;;;;;;4906207;29;20075;-79
2022/04/28 05:41:10;;;;;;;31.20;23.55;;;;;;;;;;4907256;29;20052;-79
2022/04/28 05:47:00;;;;;;;27.17;20.75;;;;;;;;;;4923285;29;20028;-83
2022/04/28 05:57:28;;;;;;;31.00;23.45;;;;;;;;;;4949693;23;20522;-76
2022/04/28 05:59:54;;;;;;;29.52;22.42;;;;;;;;;;4932460;29;20440;-76
2022/04/28 06:05:28;;;;;;;32.85;24.23;;;;;;;;;;4920188;29;20120;-76
2022/04/28 06:07:55;;;;;;;31.95;23.60;;;;;;;;;;4917868;29;20027;-76
2022/04/28 06:10:23;;;;;;;35.80;27.90;;;;;;;;;;4900540;29;20119;-75
2022/04/28 06:12:49;;;;;;;32.05;23.75;;;;;;;;;;4919512;29;20032;-79
2022/04/28 06:46:28;;;;;;;32.25;24.63;;;;;;;;;;5168084;23;20075;-77
2022/04/28 06:48:54;;;;;;;35.17;25.25;;;;;;;;;;4898491;29;20076;-77
2022/04/28 06:51:42;;;;;;;31.88;25.35;;;;;;;;;;4935959;29;20016;-81
2022/04/28 06:54:08;;;;;;;31.52;24.70;;;;;;;;;;4931862;29;20033;-77
2022/04/28 06:57:02;;;;;;;31.20;23.52;;;;;;;;;;4906264;29;20012;-79
2022/04/28 07:00:08;;;;;;;27.88;22.83;;;;;;;;;;4934906;29;20039;-78
2022/04/28 07:03:22;;;;;;;29.25;23.05;;;;;;;;;;4883962;29;20026;-80
2022/04/28 07:06:36;;;;;;;29.27;24.05;;;;;;;;;;4845706;29;20034;-79
2022/04/28 07:09:06;;;;;;;28.05;23.33;;;;;;;;;;4825920;29;20015;-79
2022/04/28 07:12:08;;;;;;;26.20;21.92;;;;;;;;;;4738327;30;20039;-83
2022/04/28 07:14:35;;;;;;;33.15;25.65;;;;;;;;;;4765039;30;20125;-77
2022/04/28 07:17:32;;;;;;;38.33;29.35;;;;;;;;;;4753087;30;20024;-81
2022/04/28 07:20:20;;;;;;;29.17;24.33;;;;;;;;;;4745636;30;20029;-79
2022/04/28 07:22:46;;;;;;;31.27;24.75;;;;;;;;;;4742926;30;20055;-79
2022/04/28 07:25:13;;;;;;;29.77;24.17;;;;;;;;;;4750319;30;20131;-78
2022/04/28 07:27:41;;;;;;;28.30;24.48;;;;;;;;;;4746652;30;20047;-77
2022/04/28 07:30:07;;;;;;;28.83;23.73;;;;;;;;;;4759339;30;20120;-77
2022/04/28 07:32:33;;;;;;;30.33;23.08;;;;;;;;;;4756379;30;20059;-76
2022/04/28 07:34:59;;;;;;;36.95;23.75;;;;;;;;;;4756402;30;20059;-77
2022/04/28 07:37:28;;;;;;;30.73;23.67;;;;;;;;;;4756073;30;20054;-77
2022/04/28 07:39:55;;;;;;;35.60;26.42;;;;;;;;;;4768794;30;20062;-78
2022/04/28 07:42:24;;;;;;;34.45;25.15;;;;;;;;;;4802564;29;20121;-75
2022/04/28 07:45:12;;;;;;;32.60;25.83;;;;;;;;;;4803059;29;20048;-83
2022/04/28 07:50:58;;;;;;;32.55;24.20;;;;;;;;;;4860908;29;20053;-80
2022/04/28 07:58:39;;;;;;;32.05;23.90;;;;;;;;;;4149080;27;20024;-78
2022/04/28 08:01:06;;;;;;;32.90;24.55;;;;;;;;;;4930088;29;20036;-78
2022/04/28 08:33:16;;;;;;;33.22;23.80;;;;;;;;;;5871911;23;20420;-77
2022/04/28 08:35:42;;;;;;;30.17;22.90;;;;;;;;;;4939099;29;20035;-74
2022/04/28 08:38:08;;;;;;;28.50;21.98;;;;;;;;;;4937908;29;20605;-77
2022/04/28 08:40:34;;;;;;;30.52;23.38;;;;;;;;;;4934582;29;20114;-79
2022/04/28 08:43:05;;;;;;;30.27;23.13;;;;;;;;;;4939325;29;20028;-78
2022/04/28 08:45:38;;;;;;;30.50;22.55;;;;;;;;;;4921600;29;20528;-77
2022/04/28 08:48:06;;;;;;;29.73;22.63;;;;;;;;;;4939665;29;20028;-78
2022/04/28 08:50:33;;;;;;;35.88;22.60;;;;;;;;;;4945628;29;20030;-78
2022/04/28 08:53:24;;;;;;;30.63;22.05;;;;;;;;;;4922122;28;20028;-81
2022/04/28 08:55:57;;;;;;;27.63;21.50;;;;;;;;;;4858490;29;20164;-77
2022/04/28 08:58:24;;;;;;;32.92;22.38;;;;;;;;;;4869427;29;20038;-78
2022/04/28 09:00:51;;;;;;;28.25;23.77;;;;;;;;;;4874729;29;21103;-78
2022/04/28 09:03:17;;;;;;;31.60;23.45;;;;;;;;;;4871661;29;20045;-78
2022/04/28 09:05:44;;;;;;;34.85;23.95;;;;;;;;;;4852554;29;20060;-78
2022/04/28 09:08:12;;;;;;;30.92;23.08;;;;;;;;;;4871585;29;20041;-78
2022/04/28 09:18:28;;;;;;;26.08;21.60;;;;;;;;;;4949327;23;20093;-77
2022/04/28 09:20:55;;;;;;;26.13;20.27;;;;;;;;;;4924761;29;20056;-77
2022/04/28 09:23:21;;;;;;;25.13;20.67;;;;;;;;;;4921622;29;20052;-79
2022/04/28 09:25:47;;;;;;;25.48;19.83;;;;;;;;;;4935809;29;20024;-78
2022/04/28 09:28:13;;;;;;;26.05;20.45;;;;;;;;;;4919134;29;20024;-77
2022/04/28 09:30:43;;;;;;;24.55;19.00;;;;;;;;;;4925276;29;20043;-78
2022/04/28 09:33:13;;;;;;;26.65;19.55;;;;;;;;;;4917284;29;20024;-76
2022/04/28 09:35:50;;;;;;;23.10;18.83;;;;;;;;;;4923730;29;20024;-78
2022/04/28 09:38:20;;;;;;;25.23;18.50;;;;;;;;;;4910415;29;20067;-77
2022/04/28 09:43:38;;;;;;;20.98;18.52;;;;;;;;;;4935501;29;20064;-78
2022/04/28 09:46:08;;;;;;;26.92;19.92;;;;;;;;;;4919503;29;20107;-79
2022/04/28 09:48:39;;;;;;;25.15;19.15;;;;;;;;;;4920708;29;20031;-79
2022/04/28 09:51:13;;;;;;;25.65;20.30;;;;;;;;;;4930276;29;20047;-73
2022/04/28 09:53:40;;;;;;;26.10;19.92;;;;;;;;;;4923058;29;20285;-78
2022/04/28 09:56:07;;;;;;;26.75;20.55;;;;;;;;;;4917034;29;20039;-77
2022/04/28 09:58:42;;;;;;;26.15;19.83;;;;;;;;;;4933087;29;20035;-82
2022/04/28 10:01:42;;;;;;;26.35;20.02;;;;;;;;;;4874312;29;20020;-76
2022/04/28 10:04:29;;;;;;;25.73;19.70;;;;;;;;;;4925770;29;20024;-74
2022/04/28 10:07:16;;;;;;;27.58;20.27;;;;;;;;;;4930176;29;20431;-80
2022/04/28 10:09:45;;;;;;;25.40;18.75;;;;;;;;;;4884590;29;20048;-76
2022/04/28 10:12:15;;;;;;;26.70;20.58;;;;;;;;;;4880107;29;20054;-74
2022/04/28 10:14:44;;;;;;;34.35;21.25;;;;;;;;;;4866647;29;20037;-78
2022/04/28 10:17:21;;;;;;;23.88;20.73;;;;;;;;;;4860470;29;20053;-77
2022/04/28 10:19:58;;;;;;;27.58;21.67;;;;;;;;;;4868367;29;20026;-75
2022/04/28 10:22:29;;;;;;;23.30;20.35;;;;;;;;;;4857900;29;20134;-75
2022/04/28 10:33:24;;;;;;;26.48;20.98;;;;;;;;;;4878325;29;20078;-78
2022/04/28 10:35:57;;;;;;;22.63;19.92;;;;;;;;;;4877652;29;20020;-80
2022/04/28 10:38:38;;;;;;;22.88;19.35;;;;;;;;;;4854720;29;20049;-76
2022/04/28 10:41:10;;;;;;;24.27;20.10;;;;;;;;;;4867335;29;20132;-79
2022/04/28 10:44:00;;;;;;;25.05;19.70;;;;;;;;;;4853345;29;20026;-80
2022/04/28 10:47:13;;;;;;;22.95;19.45;;;;;;;;;;4887598;29;20020;-81
2022/04/28 10:49:59;;;;;;;;;;;;;;;;;;4886345;29;20080;-77
2022/04/28 10:52:29;;;;;;;23.27;19.02;;;;;;;;;;4878375;29;20366;-75
2022/04/28 10:55:10;;;;;;;24.40;19.88;;;;;;;;;;4880887;29;20049;-78
2022/04/28 10:57:56;;;;;;;24.80;20.27;;;;;;;;;;4872892;29;20473;-77
2022/04/28 11:00:39;;;;;;;26.67;22.02;;;;;;;;;;4882696;29;20045;-77
2022/04/28 11:03:05;;;;;;;26.15;22.10;;;;;;;;;;4882383;29;20064;-76
2022/04/28 11:05:33;;;;;;;29.67;22.77;;;;;;;;;;4878939;29;20057;-76
2022/04/28 11:08:01;;;;;;;25.33;22.35;;;;;;;;;;4882835;29;20112;-77
2022/04/28 11:10:28;;;;;;;27.55;22.70;;;;;;;;;;4884843;29;20444;-75
2022/04/28 11:12:55;;;;;;;29.27;22.70;;;;;;;;;;4891657;29;20080;-77
2022/04/28 11:15:25;;;;;;;29.42;22.48;;;;;;;;;;4889390;29;20033;-79
2022/04/28 11:17:51;;;;;;;26.25;22.35;;;;;;;;;;4867092;29;20559;-75
2022/04/28 11:20:21;;;;;;;29.70;23.88;;;;;;;;;;4864129;29;20142;-75
2022/04/28 11:22:51;;;;;;;31.48;24.40;;;;;;;;;;4880908;29;20076;-75
2022/04/28 11:25:18;;;;;;;28.00;24.38;;;;;;;;;;4878781;29;20083;-75
2022/04/28 11:27:47;;;;;;;27.48;24.48;;;;;;;;;;4891879;29;20121;-76
2022/04/28 11:30:14;;;;;;;28.38;23.33;;;;;;;;;;4878330;29;20066;-76
2022/04/28 11:32:49;;;;;;;26.38;23.13;;;;;;;;;;4880764;29;20092;-79
2022/04/28 11:35:16;;;;;;;27.45;22.58;;;;;;;;;;4883618;29;20439;-77
2022/04/28 11:37:43;;;;;;;26.98;22.85;;;;;;;;;;4864585;29;20137;-78
2022/04/28 11:40:12;;;;;;;26.20;22.77;;;;;;;;;;4886858;29;20089;-77
2022/04/28 11:42:41;;;;;;;29.25;25.40;;;;;;;;;;4885526;29;20058;-77
2022/04/28 11:45:08;;;;;;;29.88;24.95;;;;;;;;;;4915137;29;20067;-77
2022/04/28 11:47:41;;;;;;;30.00;24.88;;;;;;;;;;4911056;29;20021;-78
2022/04/28 11:50:08;;;;;;;30.02;26.60;;;;;;;;;;4907841;29;20040;-77
2022/04/28 11:52:37;;;;;;;31.08;26.20;;;;;;;;;;4905151;29;20085;-78
2022/04/28 11:55:13;;;;;;;31.83;26.80;;;;;;;;;;4906074;29;20029;-80
2022/04/28 11:57:40;;;;;;;31.75;26.77;;;;;;;;;;4912274;29;20024;-77
2022/04/28 12:00:12;;;;;;;30.20;27.00;;;;;;;;;;4890892;29;20046;-77
2022/04/28 12:02:42;;;;;;;30.50;26.58;;;;;;;;;;4885611;29;20032;-76
2022/04/28 12:05:30;;;;;;;30.55;25.30;;;;;;;;;;4906946;29;20044;-76
2022/04/28 12:07:56;;;;;;;29.80;25.98;;;;;;;;;;4908191;29;20017;-76
2022/04/28 12:15:57;;;;;;;36.08;28.38;;;;;;;;;;4888094;29;20040;-76
2022/04/28 12:21:21;;;;;;;30.20;26.85;;;;;;;;;;4906843;29;20061;-75
2022/04/28 12:24:26;;;;;;;32.17;26.45;;;;;;;;;;4917955;29;20044;-77
2022/04/28 12:32:22;;;;;;;32.20;28.17;;;;;;;;;;5097660;23;20123;-78
2022/04/28 12:35:04;;;;;;;30.33;26.08;;;;;;;;;;4940803;29;20055;-77
2022/04/28 12:37:35;;;;;;;29.92;26.20;;;;;;;;;;4954202;29;20504;-77
2022/04/28 12:40:06;;;;;;;29.65;26.45;;;;;;;;;;4918455;29;20028;-78
2022/04/28 12:42:47;;;;;;;26.65;23.75;;;;;;;;;;4938880;29;20048;-79
2022/04/28 12:45:14;;;;;;;29.67;24.38;;;;;;;;;;4949319;29;20052;-76
2022/04/28 12:47:44;;;;;;;25.50;22.77;;;;;;;;;;4945737;29;20035;-79
2022/04/28 12:50:23;;;;;;;27.65;22.60;;;;;;;;;;4938682;29;20447;-78
2022/04/28 12:52:51;;;;;;;27.48;23.20;;;;;;;;;;4938570;29;20482;-79
2022/04/28 12:55:22;;;;;;;26.20;23.35;;;;;;;;;;4947307;29;20027;-78
2022/04/28 12:58:08;;;;;;;27.88;23.27;;;;;;;;;;4895384;29;20044;-77
2022/04/28 13:00:40;;;;;;;26.90;23.52;;;;;;;;;;4878412;29;20041;-76
2022/04/28 13:03:43;;;;;;;28.05;24.08;;;;;;;;;;4883607;29;20025;-77
2022/04/28 13:06:09;;;;;;;28.35;23.58;;;;;;;;;;4795296;29;20043;-75
2022/04/28 13:13:48;;;;;;;26.42;23.63;;;;;;;;;;4960086;23;20058;-79
2022/04/28 13:16:15;;;;;;;25.67;22.48;;;;;;;;;;4890041;29;20041;-79
2022/04/28 13:18:47;;;;;;;30.48;23.52;;;;;;;;;;4877906;29;20056;-79
2022/04/28 13:21:24;;;;;;;31.98;24.27;;;;;;;;;;4890081;29;20073;-77
2022/04/28 13:24:18;;;;;;;30.73;24.65;;;;;;;;;;4876124;29;20037;-79
2022/04/28 13:35:23;;;;;;;32.55;24.40;;;;;;;;;;4937801;29;20088;-77
2022/04/28 13:37:49;;;;;;;32.72;27.65;;;;;;;;;;4900659;29;20059;-74
2022/04/28 13:40:15;;;;;;;36.13;25.33;;;;;;;;;;4916866;29;20119;-74
2022/04/28 13:42:41;;;;;;;31.25;24.35;;;;;;;;;;4914799;29;20027;-74
2022/04/28 13:45:07;;;;;;;33.42;23.30;;;;;;;;;;4901257;29;20044;-75
2022/04/28 13:47:33;;;;;;;35.08;24.70;;;;;;;;;;4922729;29;20024;-74
2022/04/28 13:50:00;;;;;;;31.52;24.90;;;;;;;;;;4906557;29;20043;-75
2022/04/28 13:52:26;;;;;;;35.90;26.67;;;;;;;;;;4922646;29;20025;-75
2022/04/28 13:54:52;;;;;;;29.58;24.67;;;;;;;;;;4920919;29;20084;-76
2022/04/28 13:57:19;;;;;;;37.22;26.00;;;;;;;;;;4926350;29;20035;-76
2022/04/28 13:59:45;;;;;;;37.95;29.15;;;;;;;;;;4914458;29;20571;-76
2022/04/28 14:02:11;;;;;;;31.70;25.90;;;;;;;;;;4917654;29;20040;-74
2022/04/28 14:04:38;;;;;;;30.83;27.50;;;;;;;;;;4921397;29;20439;-77
2022/04/28 14:07:04;;;;;;;31.00;26.75;;;;;;;;;;4904963;29;20028;-76
2022/04/28 14:09:30;;;;;;;35.20;28.05;;;;;;;;;;4905464;29;20040;-77
2022/04/28 14:11:57;;;;;;;41.53;33.53;;;;;;;;;;4908568;29;20035;-77
2022/04/28 14:14:23;;;;;;;77.82;60.58;;;;;;;;;;4919643;29;20043;-77
2022/04/28 14:17:00;;;;;;;44.53;38.38;;;;;;;;;;4914803;29;20029;-79
2022/04/28 14:19:26;;;;;;;36.70;30.05;;;;;;;;;;4901565;29;20029;-76
2022/04/28 14:21:56;;;;;;;39.40;28.45;;;;;;;;;;4902240;29;20009;-78
2022/04/28 14:30:36;;;;;;;31.98;24.70;;;;;;;;;;4923324;29;20024;-81
2022/04/28 14:33:03;;;;;;;32.08;25.63;;;;;;;;;;4899168;29;20298;-75
2022/04/28 14:35:29;;;;;;;30.55;26.35;;;;;;;;;;4900863;29;20099;-75
2022/04/28 14:37:55;;;;;;;31.20;25.38;;;;;;;;;;4898449;29;20052;-74
2022/04/28 14:40:22;;;;;;;30.40;26.08;;;;;;;;;;4894426;29;20027;-75
2022/04/28 14:42:49;;;;;;;28.80;24.55;;;;;;;;;;4902279;29;20090;-74
2022/04/28 14:45:15;;;;;;;30.00;24.77;;;;;;;;;;4899987;29;20487;-73
2022/04/28 14:47:41;;;;;;;32.55;24.40;;;;;;;;;;4901137;29;20507;-76
2022/04/28 14:52:52;;;;;;;30.75;24.13;;;;;;;;;;4898760;29;20503;-73
2022/04/28 14:55:20;;;;;;;26.33;23.38;;;;;;;;;;4895838;29;20084;-74
2022/04/28 14:57:48;;;;;;;26.73;21.80;;;;;;;;;;4898135;29;20514;-74
2022/04/28 15:00:16;;;;;;;28.23;21.77;;;;;;;;;;4898187;29;20548;-74
2022/04/28 15:02:43;;;;;;;27.27;21.08;;;;;;;;;;4899837;29;20016;-74
2022/04/28 15:05:10;;;;;;;30.48;21.42;;;;;;;;;;4899014;29;20036;-74
2022/04/28 15:07:36;;;;;;;25.75;22.48;;;;;;;;;;4890888;29;20376;-74
2022/04/28 15:10:03;;;;;;;27.05;22.15;;;;;;;;;;4899681;29;20521;-74
2022/04/28 15:12:30;;;;;;;28.67;22.00;;;;;;;;;;4898791;29;20475;-74
2022/04/28 15:14:59;;;;;;;31.17;22.65;;;;;;;;;;4882515;29;20094;-73
2022/04/28 15:17:26;;;;;;;29.63;22.92;;;;;;;;;;4882118;29;20025;-74
2022/04/28 15:19:52;;;;;;;29.92;22.08;;;;;;;;;;4880311;29;20041;-74
2022/04/28 15:22:18;;;;;;;25.80;21.77;;;;;;;;;;4871269;29;20104;-74
2022/04/28 15:24:48;;;;;;;28.20;21.75;;;;;;;;;;4880271;29;20041;-74
2022/04/28 15:27:14;;;;;;;25.85;22.45;;;;;;;;;;4880455;29;20053;-74
2022/04/28 15:29:40;;;;;;;25.95;22.48;;;;;;;;;;4880641;29;20029;-74
2022/04/28 15:32:07;;;;;;;27.42;21.77;;;;;;;;;;4880783;29;20388;-74
2022/04/28 15:34:33;;;;;;;25.20;21.80;;;;;;;;;;4880969;29;20061;-74
2022/04/28 15:37:00;;;;;;;22.85;20.40;;;;;;;;;;4880752;29;20025;-74
2022/04/28 15:39:26;;;;;;;23.90;20.88;;;;;;;;;;4884298;29;20033;-73
2022/04/28 15:41:52;;;;;;;28.13;20.63;;;;;;;;;;4885291;29;20029;-78
2022/04/28 15:44:19;;;;;;;26.88;21.08;;;;;;;;;;4885676;29;20048;-78
2022/04/28 15:46:47;;;;;;;28.50;21.33;;;;;;;;;;4903466;29;20037;-78
2022/04/28 15:49:16;;;;;;;35.50;20.13;;;;;;;;;;4902876;29;20033;-76
2022/04/28 15:51:46;;;;;;;44.95;35.78;;;;;;;;;;4902437;29;20001;-77
2022/04/28 15:54:12;;;;;;;24.33;19.80;;;;;;;;;;4902032;29;20025;-77
2022/04/28 15:56:58;;;;;;;26.92;18.50;;;;;;;;;;4888023;29;20052;-75
2022/04/28 15:59:26;;;;;;;24.70;19.83;;;;;;;;;;4904491;29;20053;-77
2022/04/28 16:01:52;;;;;;;25.70;20.02;;;;;;;;;;4928287;23;20048;-77
2022/04/28 16:04:18;;;;;;;24.50;20.38;;;;;;;;;;4912658;29;20108;-76
2022/04/28 16:06:44;;;;;;;22.63;19.10;;;;;;;;;;4941062;29;20040;-75
2022/04/28 16:09:13;;;;;;;22.83;19.92;;;;;;;;;;4940729;29;20008;-76
2022/04/28 16:12:20;;;;;;;23.17;20.00;;;;;;;;;;4940997;29;20056;-82
2022/04/28 16:14:56;;;;;;;26.60;21.30;;;;;;;;;;4820435;29;20039;-78
2022/04/28 16:17:33;;;;;;;26.35;21.55;;;;;;;;;;4840334;29;20054;-81
2022/04/28 16:20:00;;;;;;;28.88;23.55;;;;;;;;;;4817952;29;20048;-78
2022/04/28 16:22:26;;;;;;;32.25;24.63;;;;;;;;;;4818250;29;20082;-76
2022/04/28 16:24:53;;;;;;;34.08;26.08;;;;;;;;;;4824978;29;20417;-77
2022/04/28 16:27:20;;;;;;;33.05;26.23;;;;;;;;;;4838388;29;20064;-77
2022/04/28 16:29:48;;;;;;;34.00;27.48;;;;;;;;;;4828310;29;20046;-76
2022/04/28 16:32:16;;;;;;;39.88;31.40;;;;;;;;;;4829947;29;20158;-77
2022/04/28 16:34:42;;;;;;;38.67;29.83;;;;;;;;;;4829951;29;20401;-77
2022/04/28 16:37:17;;;;;;;28.60;22.50;;;;;;;;;;4828149;29;20062;-77
2022/04/28 16:39:50;;;;;;;26.40;21.05;;;;;;;;;;4840425;29;20054;-79
2022/04/28 16:42:51;;;;;;;29.83;23.90;;;;;;;;;;4840009;29;20024;-81
2022/04/28 16:51:02;;;;;;;43.72;34.15;;;;;;;;;;5305516;23;20080;-80
2022/04/28 16:58:57;;;;;;;49.47;33.88;;;;;;;;;;4953221;23;20059;-75
2022/04/28 17:01:26;;;;;;;42.30;31.58;;;;;;;;;;4881281;29;20033;-78
2022/04/28 17:06:41;;;;;;;41.47;32.63;;;;;;;;;;4887606;29;20052;-75
2022/04/28 17:09:07;;;;;;;28.73;20.83;;;;;;;;;;4882592;29;20116;-75
2022/04/28 17:11:34;;;;;;;24.92;22.10;;;;;;;;;;4885614;29;20029;-76
2022/04/28 17:24:26;;;;;;;32.88;26.38;;;;;;;;;;5121242;23;21019;-77
2022/04/28 17:27:10;;;;;;;32.17;24.75;;;;;;;;;;5379096;23;20083;-79
2022/04/28 17:29:37;;;;;;;34.92;24.88;;;;;;;;;;4917865;29;20067;-77
2022/04/28 17:32:07;;;;;;;28.08;23.52;;;;;;;;;;4931201;29;20539;-75
2022/04/28 17:34:33;;;;;;;30.08;23.92;;;;;;;;;;4909372;29;20024;-77
2022/04/28 17:37:10;;;;;;;27.73;21.95;;;;;;;;;;4918901;29;20031;-82
2022/04/28 17:39:55;;;;;;;28.67;22.20;;;;;;;;;;4929636;29;20503;-79
2022/04/28 17:42:22;;;;;;;29.17;23.08;;;;;;;;;;4922407;29;20024;-72
2022/04/28 17:44:49;;;;;;;27.83;23.60;;;;;;;;;;4901325;29;20066;-72
2022/04/28 17:47:15;;;;;;;31.30;24.80;;;;;;;;;;4923347;29;20016;-72
2022/04/28 17:49:41;;;;;;;30.45;25.83;;;;;;;;;;4921160;29;20024;-72